createdAt,value
2022-08-22T00:00:06.368Z,18.32
2022-08-22T00:01:06.507Z,18.35
2022-08-22T00:02:06.660Z,18.34
2022-08-22T00:02:45.362Z,20.88
2022-08-22T00:02:47.663Z,21.58
2022-08-22T00:02:58.484Z,19.42
2022-08-22T00:03:03.074Z,19.53
2022-08-22T00:03:09.767Z,21.27
2022-08-22T00:03:16.022Z,18.66
2022-08-22T00:03:16.332Z,19.47
2022-08-22T00:03:22.309Z,18.34
2022-08-22T00:04:07.947Z,18.34
2022-08-22T00:05:07.068Z,18.31
2022-08-22T00:06:07.209Z,18.29
2022-08-22T00:07:07.368Z,18.25
2022-08-22T00:08:07.516Z,18.21
2022-08-22T00:09:07.652Z,18.19
2022-08-22T00:10:07.797Z,18.17
2022-08-22T00:11:07.967Z,18.20
2022-08-22T00:12:08.096Z,18.17
2022-08-22T00:13:08.232Z,18.17
2022-08-22T00:14:08.377Z,18.17
2022-08-22T00:15:08.462Z,18.19
2022-08-22T00:16:09.652Z,18.19
2022-08-22T00:17:08.777Z,18.17
2022-08-22T00:18:08.905Z,18.19
2022-08-22T00:19:09.044Z,18.23
2022-08-22T00:20:09.204Z,18.23
2022-08-22T00:21:09.358Z,18.26
2022-08-22T00:22:09.498Z,18.25
2022-08-22T00:23:09.597Z,18.25
2022-08-22T00:24:09.738Z,18.21
2022-08-22T00:25:15.025Z,18.23
2022-08-22T00:26:11.087Z,18.25
2022-08-22T00:27:10.145Z,18.26
2022-08-22T00:28:10.285Z,18.26
2022-08-22T00:29:10.439Z,18.26
2022-08-22T00:30:10.567Z,18.23
2022-08-22T00:31:10.703Z,18.25
2022-08-22T00:32:10.838Z,18.28
2022-08-22T00:33:11.018Z,18.26
2022-08-22T00:34:11.149Z,18.26
2022-08-22T00:35:11.213Z,18.28
2022-08-22T00:36:11.348Z,18.26
2022-08-22T00:37:11.488Z,18.23
2022-08-22T00:38:11.630Z,18.25
2022-08-22T00:39:11.730Z,18.25
2022-08-22T00:40:11.908Z,18.25
2022-08-22T00:41:11.968Z,18.26
2022-08-22T00:42:12.132Z,18.25
2022-08-22T00:43:12.279Z,18.25
2022-08-22T00:44:12.414Z,18.23
2022-08-22T00:45:12.588Z,18.21
2022-08-22T00:46:13.496Z,18.23
2022-08-22T00:47:12.866Z,18.25
2022-08-22T00:48:14.549Z,18.25
2022-08-22T00:49:13.136Z,18.26
2022-08-22T00:50:13.276Z,18.26
2022-08-22T00:51:13.387Z,18.28
2022-08-22T00:52:13.488Z,18.25
2022-08-22T00:53:13.662Z,18.26
2022-08-22T00:54:18.341Z,18.26
2022-08-22T00:55:13.988Z,18.26
2022-08-22T00:56:14.116Z,18.25
2022-08-22T00:57:14.251Z,18.29
2022-08-22T00:58:14.377Z,18.26
2022-08-22T00:59:22.924Z,18.21
2022-08-22T01:00:15.648Z,18.21
2022-08-22T01:01:14.803Z,18.23
2022-08-22T01:02:14.957Z,18.21
2022-08-22T01:03:15.107Z,18.23
2022-08-22T01:04:15.213Z,18.25
2022-08-22T01:05:15.407Z,18.23
2022-08-22T01:06:15.502Z,18.25
2022-08-22T01:07:15.598Z,18.25
2022-08-22T01:08:15.738Z,18.26
2022-08-22T01:09:15.904Z,18.28
2022-08-22T01:10:16.046Z,18.28
2022-08-22T01:11:16.151Z,18.25
2022-08-22T01:12:16.298Z,18.23
2022-08-22T01:13:16.445Z,18.19
2022-08-22T01:14:16.608Z,18.19
2022-08-22T01:15:16.896Z,18.20
2022-08-22T01:16:16.875Z,18.19
2022-08-22T01:17:17.026Z,18.17
2022-08-22T01:18:17.154Z,18.19
2022-08-22T01:19:17.288Z,18.17
2022-08-22T01:20:17.441Z,18.16
2022-08-22T01:21:17.527Z,18.13
2022-08-22T01:22:17.658Z,18.11
2022-08-22T01:23:17.836Z,18.10
2022-08-22T01:24:17.947Z,18.09
2022-08-22T01:25:18.026Z,18.05
2022-08-22T01:26:19.372Z,18.04
2022-08-22T01:27:18.299Z,18.04
2022-08-22T01:28:18.436Z,18.04
2022-08-22T01:29:18.563Z,18.01
2022-08-22T01:30:19.735Z,17.98
2022-08-22T01:31:18.942Z,17.99
2022-08-22T01:32:19.017Z,17.98
2022-08-22T01:33:19.148Z,17.98
2022-08-22T01:34:19.299Z,17.98
2022-08-22T01:35:19.457Z,17.99
2022-08-22T01:36:19.618Z,18.01
2022-08-22T01:37:19.683Z,17.98
2022-08-22T01:38:19.816Z,17.96
2022-08-22T01:39:19.935Z,17.95
2022-08-22T01:40:20.150Z,17.94
2022-08-22T01:41:20.197Z,17.92
2022-08-22T01:42:20.357Z,17.94
2022-08-22T01:43:20.484Z,17.94
2022-08-22T01:44:20.637Z,17.94
2022-08-22T01:45:20.786Z,17.89
2022-08-22T01:46:21.526Z,17.89
2022-08-22T01:47:21.085Z,17.86
2022-08-22T01:48:21.257Z,17.81
2022-08-22T01:49:21.406Z,17.83
2022-08-22T01:50:21.546Z,17.77
2022-08-22T01:51:21.677Z,17.76
2022-08-22T01:52:21.819Z,17.76
2022-08-22T01:53:21.967Z,17.79
2022-08-22T01:54:22.116Z,17.79
2022-08-22T01:55:22.259Z,17.80
2022-08-22T01:56:22.422Z,17.80
2022-08-22T01:57:22.498Z,17.83
2022-08-22T01:58:22.651Z,17.80
2022-08-22T01:59:22.795Z,17.80
2022-08-22T02:00:35.528Z,17.77
2022-08-22T02:01:24.130Z,17.76
2022-08-22T02:02:23.217Z,17.77
2022-08-22T02:03:23.343Z,17.77
2022-08-22T02:04:23.476Z,17.74
2022-08-22T02:05:23.606Z,17.73
2022-08-22T02:06:23.781Z,17.71
2022-08-22T02:07:31.548Z,17.73
2022-08-22T02:08:24.984Z,17.73
2022-08-22T02:09:24.685Z,17.73
2022-08-22T02:10:24.198Z,17.76
2022-08-22T02:11:24.366Z,17.76
2022-08-22T02:12:24.497Z,17.74
2022-08-22T02:13:24.645Z,17.73
2022-08-22T02:14:24.748Z,17.71
2022-08-22T02:15:24.866Z,17.73
2022-08-22T02:16:25.026Z,17.74
2022-08-22T02:17:25.209Z,17.74
2022-08-22T02:18:25.335Z,17.74
2022-08-22T02:19:25.474Z,17.77
2022-08-22T02:20:25.626Z,17.77
2022-08-22T02:21:25.725Z,17.77
2022-08-22T02:22:25.853Z,17.76
2022-08-22T02:23:25.986Z,17.74
2022-08-22T02:24:26.115Z,17.71
2022-08-22T02:25:26.266Z,17.70
2022-08-22T02:26:26.433Z,17.70
2022-08-22T02:27:27.157Z,17.71
2022-08-22T02:28:27.715Z,17.74
2022-08-22T02:29:26.847Z,17.74
2022-08-22T02:30:26.966Z,17.74
2022-08-22T02:31:27.107Z,17.73
2022-08-22T02:32:27.288Z,17.70
2022-08-22T02:33:27.415Z,17.68
2022-08-22T02:34:27.555Z,17.65
2022-08-22T02:35:27.677Z,17.58
2022-08-22T02:36:27.836Z,17.54
2022-08-22T02:37:27.939Z,17.53
2022-08-22T02:38:28.047Z,17.47
2022-08-22T02:39:28.176Z,17.47
2022-08-22T02:40:28.336Z,17.45
2022-08-22T02:41:28.422Z,17.45
2022-08-22T02:42:28.593Z,17.45
2022-08-22T02:43:28.667Z,17.45
2022-08-22T02:44:28.803Z,17.45
2022-08-22T02:45:28.936Z,17.45
2022-08-22T02:46:29.076Z,17.43
2022-08-22T02:47:29.238Z,17.42
2022-08-22T02:48:29.376Z,17.39
2022-08-22T02:49:29.525Z,17.35
2022-08-22T02:50:29.709Z,17.32
2022-08-22T02:51:29.792Z,17.32
2022-08-22T02:52:29.924Z,17.33
2022-08-22T02:53:30.078Z,17.32
2022-08-22T02:54:30.227Z,17.28
2022-08-22T02:55:30.365Z,17.24
2022-08-22T02:56:30.513Z,17.24
2022-08-22T02:57:30.666Z,17.27
2022-08-22T02:58:31.778Z,17.25
2022-08-22T02:59:30.932Z,17.24
2022-08-22T03:00:33.196Z,17.21
2022-08-22T03:01:31.134Z,17.21
2022-08-22T03:02:31.320Z,17.17
2022-08-22T03:03:31.413Z,17.14
2022-08-22T03:04:31.548Z,17.10
2022-08-22T03:05:31.686Z,17.09
2022-08-22T03:06:31.846Z,17.06
2022-08-22T03:07:31.985Z,17.03
2022-08-22T03:08:32.139Z,17.05
2022-08-22T03:09:32.275Z,17.05
2022-08-22T03:10:32.443Z,17.03
2022-08-22T03:11:32.585Z,17.02
2022-08-22T03:12:32.742Z,17.02
2022-08-22T03:13:32.895Z,17.03
2022-08-22T03:14:32.995Z,17.05
2022-08-22T03:15:33.170Z,17.05
2022-08-22T03:16:33.324Z,17.03
2022-08-22T03:17:33.462Z,17.03
2022-08-22T03:18:33.592Z,17.02
2022-08-22T03:19:34.476Z,17.00
2022-08-22T03:20:33.864Z,17.00
2022-08-22T03:21:33.975Z,17.00
2022-08-22T03:22:34.105Z,17.02
2022-08-22T03:23:34.184Z,17.02
2022-08-22T03:24:34.316Z,17.02
2022-08-22T03:25:34.451Z,17.00
2022-08-22T03:26:34.575Z,16.99
2022-08-22T03:27:34.738Z,16.96
2022-08-22T03:28:34.869Z,16.90
2022-08-22T03:29:35.003Z,16.87
2022-08-22T03:30:35.175Z,16.85
2022-08-22T03:31:35.348Z,16.82
2022-08-22T03:32:35.449Z,16.78
2022-08-22T03:33:35.596Z,16.75
2022-08-22T03:34:35.684Z,16.73
2022-08-22T03:35:35.844Z,16.69
2022-08-22T03:36:35.989Z,16.66
2022-08-22T03:37:36.123Z,16.63
2022-08-22T03:38:36.291Z,16.60
2022-08-22T03:39:36.393Z,16.57
2022-08-22T03:40:36.525Z,16.57
2022-08-22T03:41:36.663Z,16.55
2022-08-22T03:42:36.784Z,16.60
2022-08-22T03:43:36.965Z,16.60
2022-08-22T03:44:37.025Z,16.63
2022-08-22T03:45:37.172Z,16.66
2022-08-22T03:46:37.253Z,16.69
2022-08-22T03:47:37.404Z,16.67
2022-08-22T03:48:37.492Z,16.69
2022-08-22T03:49:37.666Z,16.67
2022-08-22T03:50:37.826Z,16.72
2022-08-22T03:51:38.004Z,16.69
2022-08-22T03:52:38.072Z,16.70
2022-08-22T03:53:38.226Z,16.66
2022-08-22T03:54:38.376Z,16.63
2022-08-22T03:55:38.543Z,16.59
2022-08-22T03:56:38.607Z,16.55
2022-08-22T03:57:38.755Z,16.47
2022-08-22T03:58:38.855Z,16.40
2022-08-22T03:59:42.460Z,16.33
2022-08-22T04:00:39.267Z,16.36
2022-08-22T04:01:39.294Z,16.36
2022-08-22T04:02:42.835Z,16.33
2022-08-22T04:03:39.595Z,16.27
2022-08-22T04:04:39.682Z,16.23
2022-08-22T04:05:39.803Z,16.22
2022-08-22T04:06:39.903Z,16.17
2022-08-22T04:07:40.055Z,16.25
2022-08-22T04:08:43.778Z,16.26
2022-08-22T04:09:40.345Z,16.23
2022-08-22T04:10:40.523Z,16.26
2022-08-22T04:11:40.682Z,16.27
2022-08-22T04:12:40.954Z,16.27
2022-08-22T04:13:40.855Z,16.23
2022-08-22T04:14:41.004Z,16.25
2022-08-22T04:15:41.163Z,16.30
2022-08-22T04:16:41.242Z,16.29
2022-08-22T04:17:41.384Z,16.26
2022-08-22T04:18:41.484Z,16.25
2022-08-22T04:19:41.656Z,16.26
2022-08-22T04:20:41.725Z,16.29
2022-08-22T04:21:41.855Z,16.30
2022-08-22T04:22:42.004Z,16.33
2022-08-22T04:23:42.105Z,16.40
2022-08-22T04:24:42.265Z,16.42
2022-08-22T04:25:42.371Z,16.42
2022-08-22T04:26:42.532Z,16.44
2022-08-22T04:27:42.673Z,16.42
2022-08-22T04:28:42.818Z,16.40
2022-08-22T04:29:42.984Z,16.36
2022-08-22T04:30:43.104Z,16.33
2022-08-22T04:31:43.214Z,16.33
2022-08-22T04:32:43.314Z,16.33
2022-08-22T04:33:43.452Z,16.33
2022-08-22T04:34:43.597Z,16.30
2022-08-22T04:35:43.714Z,16.27
2022-08-22T04:36:43.826Z,16.25
2022-08-22T04:37:43.933Z,16.25
2022-08-22T04:38:44.117Z,16.22
2022-08-22T04:39:44.255Z,16.22
2022-08-22T04:40:44.302Z,16.18
2022-08-22T04:41:44.461Z,16.16
2022-08-22T04:42:44.593Z,16.17
2022-08-22T04:43:44.735Z,16.17
2022-08-22T04:44:44.882Z,16.17
2022-08-22T04:45:44.990Z,16.14
2022-08-22T04:46:45.145Z,16.14
2022-08-22T04:47:46.044Z,16.16
2022-08-22T04:48:46.345Z,16.17
2022-08-22T04:49:45.481Z,16.18
2022-08-22T04:50:45.590Z,16.22
2022-08-22T04:51:45.735Z,16.25
2022-08-22T04:52:45.856Z,16.27
2022-08-22T04:53:45.954Z,16.29
2022-08-22T04:54:46.104Z,16.33
2022-08-22T04:55:46.274Z,16.36
2022-08-22T04:56:46.351Z,16.42
2022-08-22T04:57:46.532Z,16.47
2022-08-22T04:58:46.606Z,16.51
2022-08-22T04:59:46.756Z,16.55
2022-08-22T05:00:47.033Z,16.63
2022-08-22T05:01:47.200Z,16.65
2022-08-22T05:02:49.150Z,16.69
2022-08-22T05:03:47.292Z,16.69
2022-08-22T05:04:47.425Z,16.73
2022-08-22T05:05:47.571Z,16.77
2022-08-22T05:06:47.674Z,16.80
2022-08-22T05:07:47.821Z,16.84
2022-08-22T05:08:48.412Z,16.90
2022-08-22T05:09:49.039Z,16.91
2022-08-22T05:10:48.191Z,16.96
2022-08-22T05:11:48.312Z,16.99
2022-08-22T05:12:48.421Z,17.00
2022-08-22T05:13:48.565Z,17.03
2022-08-22T05:14:48.693Z,17.06
2022-08-22T05:15:48.833Z,17.10
2022-08-22T05:16:49.022Z,17.10
2022-08-22T05:17:49.101Z,17.14
2022-08-22T05:18:49.253Z,17.17
2022-08-22T05:19:49.395Z,17.20
2022-08-22T05:20:49.483Z,17.24
2022-08-22T05:21:49.620Z,17.27
2022-08-22T05:22:49.720Z,17.30
2022-08-22T05:23:49.864Z,17.32
2022-08-22T05:24:49.992Z,17.33
2022-08-22T05:25:50.142Z,17.36
2022-08-22T05:26:50.275Z,17.38
2022-08-22T05:27:53.259Z,17.40
2022-08-22T05:28:53.434Z,17.43
2022-08-22T05:29:50.615Z,17.45
2022-08-22T05:30:50.714Z,17.49
2022-08-22T05:31:50.852Z,17.51
2022-08-22T05:32:51.013Z,17.55
2022-08-22T05:33:51.123Z,17.60
2022-08-22T05:34:51.358Z,17.63
2022-08-22T05:35:55.829Z,17.68
2022-08-22T05:36:52.454Z,17.71
2022-08-22T05:37:51.603Z,17.73
2022-08-22T05:38:51.711Z,17.77
2022-08-22T05:39:51.875Z,17.81
2022-08-22T05:40:51.950Z,17.84
2022-08-22T05:41:52.092Z,17.87
2022-08-22T05:42:52.232Z,17.92
2022-08-22T05:43:52.335Z,17.95
2022-08-22T05:44:52.435Z,17.99
2022-08-22T05:45:53.292Z,18.05
2022-08-22T05:46:53.424Z,18.11
2022-08-22T05:47:53.077Z,18.16
2022-08-22T05:48:53.163Z,18.20
2022-08-22T05:49:53.240Z,18.23
2022-08-22T05:50:53.233Z,18.28
2022-08-22T05:51:53.479Z,18.29
2022-08-22T05:52:53.483Z,18.31
2022-08-22T05:53:53.600Z,18.36
2022-08-22T05:54:54.413Z,18.41
2022-08-22T05:55:54.541Z,18.47
2022-08-22T05:56:53.934Z,18.50
2022-08-22T05:57:54.092Z,18.56
2022-08-22T05:58:54.882Z,18.62
2022-08-22T05:59:54.946Z,18.71
2022-08-22T06:00:54.446Z,18.79
2022-08-22T06:01:54.616Z,18.87
2022-08-22T06:02:54.732Z,18.90
2022-08-22T06:03:54.823Z,18.89
2022-08-22T06:04:55.048Z,18.94
2022-08-22T06:05:55.049Z,19.01
2022-08-22T06:06:55.181Z,19.12
2022-08-22T06:07:55.331Z,19.13
2022-08-22T06:08:56.126Z,19.21
2022-08-22T06:09:55.601Z,19.25
2022-08-22T06:10:55.638Z,19.31
2022-08-22T06:11:55.826Z,19.42
2022-08-22T06:12:55.954Z,19.46
2022-08-22T06:13:56.101Z,19.47
2022-08-22T06:14:56.214Z,19.50
2022-08-22T06:15:56.311Z,19.53
2022-08-22T06:16:56.407Z,19.57
2022-08-22T06:17:56.544Z,19.61
2022-08-22T06:18:56.662Z,19.65
2022-08-22T06:19:56.755Z,19.67
2022-08-22T06:20:56.867Z,19.68
2022-08-22T06:21:57.002Z,19.75
2022-08-22T06:22:57.103Z,19.79
2022-08-22T06:23:57.252Z,19.82
2022-08-22T06:24:57.344Z,19.79
2022-08-22T06:25:57.474Z,19.78
2022-08-22T06:26:57.584Z,19.75
2022-08-22T06:27:57.911Z,19.80
2022-08-22T06:28:57.844Z,19.83
2022-08-22T06:29:57.960Z,19.87
2022-08-22T06:30:58.083Z,19.86
2022-08-22T06:31:58.192Z,19.89
2022-08-22T06:33:01.003Z,19.86
2022-08-22T06:33:58.457Z,19.89
2022-08-22T06:34:58.593Z,19.87
2022-08-22T06:35:58.708Z,19.89
2022-08-22T06:36:58.812Z,19.90
2022-08-22T06:37:59.252Z,19.97
2022-08-22T06:38:59.067Z,19.98
2022-08-22T06:39:59.240Z,20.02
2022-08-22T06:40:59.321Z,20.04
2022-08-22T06:41:59.467Z,20.07
2022-08-22T06:42:59.583Z,20.13
2022-08-22T06:43:59.705Z,20.15
2022-08-22T06:44:59.838Z,20.16
2022-08-22T06:45:59.942Z,20.17
2022-08-22T06:47:00.063Z,20.15
2022-08-22T06:48:00.976Z,20.13
2022-08-22T06:49:00.379Z,20.13
2022-08-22T06:50:00.494Z,20.10
2022-08-22T06:51:00.575Z,20.15
2022-08-22T06:52:00.649Z,20.15
2022-08-22T06:53:00.816Z,20.20
2022-08-22T06:54:00.928Z,20.23
2022-08-22T06:55:01.051Z,20.33
2022-08-22T06:56:01.913Z,20.34
2022-08-22T06:57:01.274Z,20.40
2022-08-22T06:58:01.376Z,20.44
2022-08-22T06:59:01.464Z,20.54
2022-08-22T07:00:01.625Z,20.58
2022-08-22T07:01:11.896Z,20.66
2022-08-22T07:02:02.910Z,20.76
2022-08-22T07:03:01.974Z,20.88
2022-08-22T07:04:02.104Z,20.88
2022-08-22T07:05:02.224Z,20.94
2022-08-22T07:06:02.343Z,20.97
2022-08-22T07:07:02.423Z,21.00
2022-08-22T07:08:02.577Z,21.05
2022-08-22T07:09:06.741Z,21.08
2022-08-22T07:10:02.812Z,21.21
2022-08-22T07:11:02.939Z,21.27
2022-08-22T07:12:03.042Z,21.37
2022-08-22T07:13:03.154Z,21.37
2022-08-22T07:14:03.253Z,21.38
2022-08-22T07:15:03.443Z,21.37
2022-08-22T07:16:03.554Z,21.34
2022-08-22T07:17:04.349Z,21.36
2022-08-22T07:18:03.772Z,21.36
2022-08-22T07:19:03.892Z,21.46
2022-08-22T07:20:03.998Z,21.58
2022-08-22T07:21:04.139Z,21.67
2022-08-22T07:22:04.236Z,21.79
2022-08-22T07:23:04.376Z,21.83
2022-08-22T07:24:04.506Z,21.85
2022-08-22T07:25:04.617Z,21.86
2022-08-22T07:26:04.726Z,21.96
2022-08-22T07:27:04.872Z,22.02
2022-08-22T07:28:05.520Z,22.11
2022-08-22T07:29:07.853Z,22.19
2022-08-22T07:30:06.205Z,22.24
2022-08-22T07:31:05.317Z,22.31
2022-08-22T07:32:05.413Z,22.30
2022-08-22T07:33:26.253Z,22.38
2022-08-22T07:34:06.687Z,22.35
2022-08-22T07:35:05.846Z,22.26
2022-08-22T07:36:05.965Z,22.35
2022-08-22T07:37:06.074Z,22.27
2022-08-22T07:38:08.173Z,22.15
2022-08-22T07:39:06.295Z,21.98
2022-08-22T07:40:06.466Z,21.90
2022-08-22T07:41:06.546Z,21.86
2022-08-22T07:42:06.696Z,21.83
2022-08-22T07:43:06.819Z,21.90
2022-08-22T07:44:06.914Z,21.86
2022-08-22T07:45:07.037Z,21.85
2022-08-22T07:46:07.125Z,21.83
2022-08-22T07:47:07.252Z,21.83
2022-08-22T07:48:07.363Z,21.90
2022-08-22T07:49:09.515Z,21.99
2022-08-22T07:50:07.628Z,22.01
2022-08-22T07:51:07.716Z,22.04
2022-08-22T07:52:07.863Z,22.06
2022-08-22T07:53:08.034Z,22.08
2022-08-22T07:54:08.127Z,22.09
2022-08-22T07:55:08.233Z,22.08
2022-08-22T07:56:08.326Z,22.11
2022-08-22T07:57:08.476Z,22.15
2022-08-22T07:58:08.625Z,22.24
2022-08-22T07:59:12.848Z,22.35
2022-08-22T08:00:08.852Z,22.46
2022-08-22T08:01:09.036Z,22.45
2022-08-22T08:02:09.146Z,22.48
2022-08-22T08:03:09.257Z,22.49
2022-08-22T08:04:09.370Z,22.42
2022-08-22T08:05:09.488Z,22.44
2022-08-22T08:06:09.578Z,22.49
2022-08-22T08:07:09.717Z,22.59
2022-08-22T08:08:09.879Z,22.70
2022-08-22T08:09:11.018Z,22.79
2022-08-22T08:10:13.078Z,22.79
2022-08-22T08:11:10.225Z,22.79
2022-08-22T08:12:10.398Z,22.91
2022-08-22T08:13:10.487Z,23.01
2022-08-22T08:14:13.762Z,23.18
2022-08-22T08:15:10.725Z,23.18
2022-08-22T08:16:10.829Z,23.19
2022-08-22T08:17:10.986Z,23.14
2022-08-22T08:18:11.098Z,23.16
2022-08-22T08:19:11.245Z,23.21
2022-08-22T08:20:11.379Z,23.32
2022-08-22T08:21:11.471Z,23.22
2022-08-22T08:22:11.618Z,23.19
2022-08-22T08:23:11.718Z,23.37
2022-08-22T08:24:11.868Z,23.25
2022-08-22T08:25:12.016Z,23.18
2022-08-22T08:26:12.107Z,23.34
2022-08-22T08:27:12.266Z,23.53
2022-08-22T08:28:12.320Z,23.69
2022-08-22T08:29:12.432Z,23.81
2022-08-22T08:30:15.375Z,23.89
2022-08-22T08:31:12.667Z,23.87
2022-08-22T08:32:12.789Z,23.93
2022-08-22T08:33:25.315Z,24.12
2022-08-22T08:34:13.999Z,24.29
2022-08-22T08:35:13.147Z,24.41
2022-08-22T08:36:13.288Z,24.46
2022-08-22T08:37:13.399Z,24.48
2022-08-22T08:38:13.558Z,24.60
2022-08-22T08:39:13.689Z,24.75
2022-08-22T08:40:13.862Z,24.89
2022-08-22T08:41:13.928Z,24.97
2022-08-22T08:42:14.040Z,25.12
2022-08-22T08:43:14.149Z,25.19
2022-08-22T08:44:14.260Z,25.08
2022-08-22T08:45:14.436Z,24.98
2022-08-22T08:46:14.523Z,25.05
2022-08-22T08:47:14.659Z,25.26
2022-08-22T08:48:14.751Z,25.38
2022-08-22T08:49:14.889Z,25.49
2022-08-22T08:50:15.052Z,25.60
2022-08-22T08:51:15.158Z,25.71
2022-08-22T08:52:15.277Z,25.91
2022-08-22T08:53:15.389Z,26.32
2022-08-22T08:54:15.564Z,26.42
2022-08-22T08:55:22.453Z,26.49
2022-08-22T08:56:19.730Z,26.42
2022-08-22T08:57:15.941Z,26.42
2022-08-22T08:58:17.796Z,26.44
2022-08-22T08:59:16.159Z,26.36
2022-08-22T09:00:17.010Z,26.11
2022-08-22T09:01:16.411Z,26.09
2022-08-22T09:02:20.700Z,26.17
2022-08-22T09:03:25.050Z,26.44
2022-08-22T09:04:17.718Z,26.69
2022-08-22T09:05:16.865Z,26.87
2022-08-22T09:06:16.984Z,27.01
2022-08-22T09:07:17.131Z,27.43
2022-08-22T09:08:17.242Z,27.66
2022-08-22T09:09:17.358Z,27.77
2022-08-22T09:10:18.878Z,27.80
2022-08-22T09:11:17.584Z,28.08
2022-08-22T09:12:19.442Z,28.17
2022-08-22T09:13:17.859Z,28.24
2022-08-22T09:14:17.952Z,28.39
2022-08-22T09:15:18.079Z,28.32
2022-08-22T09:16:18.723Z,28.24
2022-08-22T09:17:18.346Z,27.93
2022-08-22T09:18:18.523Z,28.02
2022-08-22T09:19:18.560Z,27.83
2022-08-22T09:20:19.625Z,27.83
2022-08-22T09:21:30.785Z,27.78
2022-08-22T09:22:19.953Z,27.81
2022-08-22T09:23:19.104Z,27.87
2022-08-22T09:24:19.199Z,27.96
2022-08-22T09:25:19.351Z,27.84
2022-08-22T09:26:19.477Z,27.72
2022-08-22T09:27:19.625Z,27.50
2022-08-22T09:28:19.751Z,27.35
2022-08-22T09:29:19.880Z,27.15
2022-08-22T09:30:27.748Z,27.05
2022-08-22T09:31:32.770Z,27.01
2022-08-22T09:32:21.254Z,26.97
2022-08-22T09:33:20.412Z,27.13
2022-08-22T09:34:24.034Z,27.18
2022-08-22T09:35:22.375Z,27.38
2022-08-22T09:36:20.795Z,27.72
2022-08-22T09:37:20.841Z,27.93
2022-08-22T09:38:21.013Z,28.11
2022-08-22T09:39:21.134Z,28.32
2022-08-22T09:40:25.184Z,28.43
2022-08-22T09:41:21.361Z,28.40
2022-08-22T09:42:21.441Z,28.38
2022-08-22T09:43:22.862Z,28.54
2022-08-22T09:44:22.412Z,28.97
2022-08-22T09:45:21.794Z,29.41
2022-08-22T09:46:21.902Z,29.91
2022-08-22T09:47:24.706Z,30.06
2022-08-22T09:48:22.154Z,29.95
2022-08-22T09:49:22.315Z,29.58
2022-08-22T09:50:22.446Z,29.44
2022-08-22T09:51:31.935Z,29.79
2022-08-22T09:52:33.810Z,29.99
2022-08-22T09:53:23.803Z,29.88
2022-08-22T09:54:22.918Z,30.22
2022-08-22T09:55:35.405Z,30.96
2022-08-22T09:56:26.131Z,31.59
2022-08-22T09:57:23.327Z,31.75
2022-08-22T09:58:23.426Z,31.92
2022-08-22T09:59:23.587Z,32.17
2022-08-22T10:00:23.708Z,32.02
2022-08-22T10:01:23.882Z,32.06
2022-08-22T10:02:23.907Z,32.56
2022-08-22T10:03:24.067Z,33.02
2022-08-22T10:04:24.188Z,33.00
2022-08-22T10:05:35.214Z,32.78
2022-08-22T10:06:25.387Z,32.51
2022-08-22T10:07:24.527Z,32.24
2022-08-22T10:08:26.199Z,32.65
2022-08-22T10:09:32.013Z,33.17
2022-08-22T10:10:26.110Z,33.47
2022-08-22T10:11:24.996Z,33.55
2022-08-22T10:12:25.094Z,33.38
2022-08-22T10:13:25.255Z,33.24
2022-08-22T10:14:25.376Z,33.59
2022-08-22T10:15:25.509Z,33.92
2022-08-22T10:16:25.595Z,33.79
2022-08-22T10:17:27.728Z,33.70
2022-08-22T10:18:26.123Z,33.66
2022-08-22T10:19:26.194Z,33.75
2022-08-22T10:20:27.709Z,33.96
2022-08-22T10:21:26.289Z,34.31
2022-08-22T10:22:29.977Z,34.06
2022-08-22T10:23:26.510Z,34.27
2022-08-22T10:24:26.608Z,33.97
2022-08-22T10:25:28.546Z,34.43
2022-08-22T10:26:26.871Z,34.55
2022-08-22T10:27:27.018Z,34.63
2022-08-22T10:28:28.582Z,34.30
2022-08-22T10:29:27.256Z,34.37
2022-08-22T10:30:27.641Z,34.80
2022-08-22T10:31:27.526Z,34.65
2022-08-22T10:32:27.617Z,34.50
2022-08-22T10:33:29.161Z,34.34
2022-08-22T10:34:27.912Z,34.56
2022-08-22T10:35:28.042Z,34.95
2022-08-22T10:36:29.157Z,34.91
2022-08-22T10:37:28.297Z,34.49
2022-08-22T10:38:28.419Z,34.71
2022-08-22T10:39:28.543Z,35.07
2022-08-22T10:40:28.707Z,35.44
2022-08-22T10:41:28.823Z,35.68
2022-08-22T10:42:28.911Z,35.98
2022-08-22T10:43:30.039Z,36.06
2022-08-22T10:44:29.172Z,35.68
2022-08-22T10:45:36.814Z,34.98
2022-08-22T10:46:30.462Z,34.27
2022-08-22T10:47:29.559Z,33.77
2022-08-22T10:48:29.640Z,33.28
2022-08-22T10:49:29.792Z,32.71
2022-08-22T10:50:31.198Z,32.71
2022-08-22T10:51:30.098Z,32.29
2022-08-22T10:52:30.200Z,32.63
2022-08-22T10:53:30.316Z,33.40
2022-08-22T10:54:30.411Z,34.08
2022-08-22T10:55:30.579Z,34.46
2022-08-22T10:56:30.706Z,34.99
2022-08-22T10:57:30.801Z,35.27
2022-08-22T10:58:30.909Z,35.54
2022-08-22T10:59:31.051Z,35.66
2022-08-22T11:00:31.191Z,35.91
2022-08-22T11:01:38.136Z,36.59
2022-08-22T11:02:32.482Z,36.87
2022-08-22T11:03:31.540Z,36.82
2022-08-22T11:04:31.653Z,36.23
2022-08-22T11:05:31.864Z,35.46
2022-08-22T11:06:31.924Z,35.22
2022-08-22T11:07:32.044Z,34.87
2022-08-22T11:08:33.099Z,34.83
2022-08-22T11:09:37.015Z,35.06
2022-08-22T11:10:32.413Z,35.56
2022-08-22T11:11:33.045Z,35.96
2022-08-22T11:12:34.977Z,35.73
2022-08-22T11:13:32.783Z,35.66
2022-08-22T11:14:32.905Z,35.69
2022-08-22T11:15:35.131Z,35.25
2022-08-22T11:16:36.740Z,34.86
2022-08-22T11:17:38.129Z,34.72
2022-08-22T11:18:34.383Z,34.49
2022-08-22T11:19:33.483Z,34.84
2022-08-22T11:20:33.608Z,35.31
2022-08-22T11:21:33.726Z,35.99
2022-08-22T11:22:33.915Z,36.21
2022-08-22T11:23:34.030Z,36.50
2022-08-22T11:24:36.785Z,36.57
2022-08-22T11:25:38.606Z,36.64
2022-08-22T11:26:41.377Z,36.52
2022-08-22T11:27:39.926Z,36.46
2022-08-22T11:28:35.614Z,37.04
2022-08-22T11:29:34.735Z,37.47
2022-08-22T11:30:36.401Z,37.84
2022-08-22T11:31:36.548Z,37.60
2022-08-22T11:32:35.204Z,38.02
2022-08-22T11:33:46.788Z,38.49
2022-08-22T11:34:36.423Z,38.58
2022-08-22T11:35:36.289Z,38.90
2022-08-22T11:36:35.656Z,39.10
2022-08-22T11:37:43.533Z,39.28
2022-08-22T11:38:36.900Z,39.20
2022-08-22T11:39:36.033Z,38.36
2022-08-22T11:40:36.148Z,37.34
2022-08-22T11:41:36.279Z,35.55
2022-08-22T11:42:36.434Z,34.19
2022-08-22T11:43:37.546Z,33.59
2022-08-22T11:44:37.590Z,33.29
2022-08-22T11:45:37.832Z,32.73
2022-08-22T11:46:36.946Z,32.07
2022-08-22T11:47:37.106Z,31.50
2022-08-22T11:48:37.220Z,31.31
2022-08-22T11:49:37.338Z,31.32
2022-08-22T11:50:37.497Z,31.52
2022-08-22T11:51:37.586Z,32.16
2022-08-22T11:52:37.715Z,32.43
2022-08-22T11:53:37.798Z,33.18
2022-08-22T11:54:37.919Z,34.12
2022-08-22T11:55:38.043Z,34.80
2022-08-22T11:56:40.170Z,34.58
2022-08-22T11:57:38.298Z,34.43
2022-08-22T11:58:38.425Z,34.40
2022-08-22T11:59:40.148Z,35.37
2022-08-22T12:00:38.667Z,36.68
2022-08-22T12:01:39.140Z,37.88
2022-08-22T12:02:38.967Z,38.19
2022-08-22T12:03:39.059Z,38.36
2022-08-22T12:04:39.166Z,37.90
2022-08-22T12:05:39.288Z,37.46
2022-08-22T12:06:39.410Z,37.15
2022-08-22T12:07:39.528Z,37.42
2022-08-22T12:08:39.701Z,37.45
2022-08-22T12:09:39.789Z,37.28
2022-08-22T12:10:39.899Z,37.38
2022-08-22T12:11:40.039Z,37.24
2022-08-22T12:12:40.188Z,36.99
2022-08-22T12:13:40.289Z,36.99
2022-08-22T12:14:40.459Z,36.56
2022-08-22T12:15:40.535Z,36.56
2022-08-22T12:16:40.697Z,36.49
2022-08-22T12:17:55.221Z,36.19
2022-08-22T12:18:41.928Z,35.61
2022-08-22T12:19:58.813Z,34.94
2022-08-22T12:20:45.563Z,34.19
2022-08-22T12:21:41.348Z,33.66
2022-08-22T12:22:41.489Z,33.31
2022-08-22T12:23:48.978Z,33.14
2022-08-22T12:24:42.761Z,32.93
2022-08-22T12:25:44.638Z,32.59
2022-08-22T12:26:42.023Z,32.53
2022-08-22T12:27:48.275Z,32.36
2022-08-22T12:28:43.230Z,32.31
2022-08-22T12:29:45.018Z,32.07
2022-08-22T12:30:42.490Z,32.02
2022-08-22T12:31:42.611Z,32.10
2022-08-22T12:32:44.030Z,32.34
2022-08-22T12:33:42.849Z,32.71
2022-08-22T12:34:43.002Z,33.06
2022-08-22T12:35:43.863Z,33.06
2022-08-22T12:36:43.289Z,33.00
2022-08-22T12:37:52.831Z,33.07
2022-08-22T12:38:44.506Z,33.44
2022-08-22T12:39:43.710Z,33.65
2022-08-22T12:40:43.986Z,33.75
2022-08-22T12:41:46.632Z,33.78
2022-08-22T12:42:43.983Z,33.89
2022-08-22T12:43:44.092Z,33.78
2022-08-22T12:44:44.242Z,33.92
2022-08-22T12:45:44.391Z,33.99
2022-08-22T12:46:46.659Z,33.82